sensor_id;sensor_type;location;lat;lon;timestamp;P1;durP1;ratioP1;P2;durP2;ratioP2
13250;SDS011;6692;50.710;7.180;2023-03-25T00:01:53;42.07;;;40.47;;
13250;SDS011;6692;50.710;7.180;2023-03-25T00:03:54;39.77;;;38.30;;
13250;SDS011;6692;50.710;7.180;2023-03-25T00:05:55;45.90;;;44.23;;
13250;SDS011;6692;50.710;7.180;2023-03-25T00:07:55;44.47;;;42.80;;
13250;SDS011;6692;50.710;7.180;2023-03-25T00:09:56;39.40;;;37.97;;
13250;SDS011;6692;50.710;7.180;2023-03-25T00:11:57;43.33;;;41.73;;
13250;SDS011;6692;50.710;7.180;2023-03-25T00:13:57;48.63;;;46.77;;
13250;SDS011;6692;50.710;7.180;2023-03-25T00:15:59;45.90;;;44.23;;
13250;SDS011;6692;50.710;7.180;2023-03-25T00:17:59;49.67;;;47.90;;
13250;SDS011;6692;50.710;7.180;2023-03-25T00:20:00;46.97;;;45.20;;
13250;SDS011;6692;50.710;7.180;2023-03-25T00:22:01;31.40;;;30.03;;
13250;SDS011;6692;50.710;7.180;2023-03-25T00:24:01;39.93;;;38.47;;
13250;SDS011;6692;50.710;7.180;2023-03-25T00:26:02;41.30;;;39.70;;
13250;SDS011;6692;50.710;7.180;2023-03-25T00:28:03;45.20;;;43.53;;
13250;SDS011;6692;50.710;7.180;2023-03-25T00:30:05;41.20;;;39.60;;
13250;SDS011;6692;50.710;7.180;2023-03-25T00:32:07;41.50;;;39.97;;
13250;SDS011;6692;50.710;7.180;2023-03-25T00:34:08;46.23;;;44.53;;
13250;SDS011;6692;50.710;7.180;2023-03-25T00:36:09;47.60;;;45.83;;
13250;SDS011;6692;50.710;7.180;2023-03-25T00:38:10;41.90;;;40.33;;
13250;SDS011;6692;50.710;7.180;2023-03-25T00:40:11;54.10;;;51.77;;
13250;SDS011;6692;50.710;7.180;2023-03-25T00:42:14;53.53;;;51.43;;
13250;SDS011;6692;50.710;7.180;2023-03-25T00:44:14;57.23;;;55.13;;
13250;SDS011;6692;50.710;7.180;2023-03-25T00:46:15;61.40;;;58.80;;
13250;SDS011;6692;50.710;7.180;2023-03-25T00:48:16;57.53;;;55.40;;
13250;SDS011;6692;50.710;7.180;2023-03-25T00:50:16;60.47;;;58.20;;
13250;SDS011;6692;50.710;7.180;2023-03-25T00:52:17;59.00;;;56.80;;
13250;SDS011;6692;50.710;7.180;2023-03-25T00:54:18;63.30;;;60.90;;
13250;SDS011;6692;50.710;7.180;2023-03-25T00:56:19;60.57;;;58.27;;
13250;SDS011;6692;50.710;7.180;2023-03-25T00:58:20;60.40;;;58.20;;
13250;SDS011;6692;50.710;7.180;2023-03-25T01:00:20;67.80;;;65.20;;
13250;SDS011;6692;50.710;7.180;2023-03-25T01:02:21;63.37;;;61.00;;
13250;SDS011;6692;50.710;7.180;2023-03-25T01:04:22;66.97;;;64.43;;
13250;SDS011;6692;50.710;7.180;2023-03-25T01:06:26;62.10;;;59.80;;
13250;SDS011;6692;50.710;7.180;2023-03-25T01:08:25;64.20;;;61.83;;
13250;SDS011;6692;50.710;7.180;2023-03-25T01:10:26;64.10;;;61.73;;
13250;SDS011;6692;50.710;7.180;2023-03-25T01:12:27;73.47;;;70.77;;
13250;SDS011;6692;50.710;7.180;2023-03-25T01:14:29;65.37;;;63.03;;
13250;SDS011;6692;50.710;7.180;2023-03-25T01:16:30;68.13;;;65.60;;
13250;SDS011;6692;50.710;7.180;2023-03-25T01:18:30;69.53;;;66.97;;
13250;SDS011;6692;50.710;7.180;2023-03-25T01:20:32;46.80;;;44.90;;
13250;SDS011;6692;50.710;7.180;2023-03-25T01:22:32;59.13;;;56.13;;
13250;SDS011;6692;50.710;7.180;2023-03-25T01:24:33;61.53;;;59.23;;
13250;SDS011;6692;50.710;7.180;2023-03-25T01:26:34;70.03;;;67.43;;
13250;SDS011;6692;50.710;7.180;2023-03-25T01:28:35;62.53;;;59.97;;
13250;SDS011;6692;50.710;7.180;2023-03-25T01:30:37;68.87;;;66.27;;
13250;SDS011;6692;50.710;7.180;2023-03-25T01:32:38;67.97;;;65.23;;
13250;SDS011;6692;50.710;7.180;2023-03-25T01:34:39;60.53;;;58.23;;
13250;SDS011;6692;50.710;7.180;2023-03-25T01:36:39;66.80;;;64.27;;
13250;SDS011;6692;50.710;7.180;2023-03-25T01:38:40;67.70;;;65.07;;
13250;SDS011;6692;50.710;7.180;2023-03-25T01:40:41;71.23;;;68.53;;
13250;SDS011;6692;50.710;7.180;2023-03-25T01:42:41;62.47;;;60.13;;
13250;SDS011;6692;50.710;7.180;2023-03-25T01:47:05;61.93;;;59.43;;
13250;SDS011;6692;50.710;7.180;2023-03-25T01:49:06;73.60;;;70.93;;
13250;SDS011;6692;50.710;7.180;2023-03-25T01:51:10;76.63;;;73.87;;
13250;SDS011;6692;50.710;7.180;2023-03-25T01:53:10;50.87;;;48.87;;
13250;SDS011;6692;50.710;7.180;2023-03-25T01:55:11;61.70;;;59.33;;
13250;SDS011;6692;50.710;7.180;2023-03-25T01:57:12;59.53;;;57.30;;
13250;SDS011;6692;50.710;7.180;2023-03-25T01:59:12;55.30;;;53.07;;
13250;SDS011;6692;50.710;7.180;2023-03-25T02:01:12;64.97;;;62.50;;
13250;SDS011;6692;50.710;7.180;2023-03-25T02:03:13;60.77;;;58.37;;
13250;SDS011;6692;50.710;7.180;2023-03-25T02:05:19;65.87;;;63.47;;
13250;SDS011;6692;50.710;7.180;2023-03-25T02:07:18;59.17;;;56.90;;
13250;SDS011;6692;50.710;7.180;2023-03-25T02:09:20;64.57;;;62.20;;
13250;SDS011;6692;50.710;7.180;2023-03-25T02:11:20;61.57;;;59.27;;
13250;SDS011;6692;50.710;7.180;2023-03-25T02:13:20;46.27;;;44.20;;
13250;SDS011;6692;50.710;7.180;2023-03-25T02:15:22;55.00;;;52.70;;
13250;SDS011;6692;50.710;7.180;2023-03-25T02:17:33;45.97;;;44.10;;
13250;SDS011;6692;50.710;7.180;2023-03-25T02:22:10;47.83;;;46.00;;
13250;SDS011;6692;50.710;7.180;2023-03-25T02:24:33;47.23;;;45.20;;
13250;SDS011;6692;50.710;7.180;2023-03-25T02:26:47;53.10;;;51.00;;
13250;SDS011;6692;50.710;7.180;2023-03-25T02:28:49;53.90;;;51.57;;
13250;SDS011;6692;50.710;7.180;2023-03-25T02:30:58;54.43;;;52.27;;
13250;SDS011;6692;50.710;7.180;2023-03-25T02:33:09;54.23;;;52.10;;
13250;SDS011;6692;50.710;7.180;2023-03-25T02:35:14;63.47;;;61.00;;
13250;SDS011;6692;50.710;7.180;2023-03-25T02:37:17;63.23;;;60.93;;
13250;SDS011;6692;50.710;7.180;2023-03-25T02:39:19;67.67;;;65.13;;
13250;SDS011;6692;50.710;7.180;2023-03-25T02:41:22;66.97;;;64.47;;
13250;SDS011;6692;50.710;7.180;2023-03-25T02:45:31;51.67;;;49.37;;
13250;SDS011;6692;50.710;7.180;2023-03-25T02:47:34;52.57;;;50.37;;
13250;SDS011;6692;50.710;7.180;2023-03-25T02:49:36;67.27;;;64.57;;
13250;SDS011;6692;50.710;7.180;2023-03-25T02:51:37;58.33;;;55.97;;
13250;SDS011;6692;50.710;7.180;2023-03-25T02:53:37;45.90;;;43.97;;
13250;SDS011;6692;50.710;7.180;2023-03-25T02:55:38;53.90;;;51.83;;
13250;SDS011;6692;50.710;7.180;2023-03-25T02:57:41;58.47;;;56.20;;
13250;SDS011;6692;50.710;7.180;2023-03-25T02:59:40;51.60;;;49.63;;
13250;SDS011;6692;50.710;7.180;2023-03-25T03:01:41;50.00;;;47.67;;
13250;SDS011;6692;50.710;7.180;2023-03-25T03:03:42;45.53;;;43.80;;
13250;SDS011;6692;50.710;7.180;2023-03-25T03:05:44;44.80;;;42.93;;
13250;SDS011;6692;50.710;7.180;2023-03-25T03:07:44;41.80;;;40.13;;
13250;SDS011;6692;50.710;7.180;2023-03-25T03:09:45;52.10;;;50.13;;
13250;SDS011;6692;50.710;7.180;2023-03-25T03:11:50;63.07;;;60.73;;
13250;SDS011;6692;50.710;7.180;2023-03-25T03:13:57;61.00;;;58.73;;
13250;SDS011;6692;50.710;7.180;2023-03-25T03:18:26;34.50;;;33.17;;
13250;SDS011;6692;50.710;7.180;2023-03-25T03:22:42;49.60;;;47.70;;
13250;SDS011;6692;50.710;7.180;2023-03-25T03:24:47;47.27;;;45.27;;
13250;SDS011;6692;50.710;7.180;2023-03-25T03:26:48;50.43;;;48.47;;
13250;SDS011;6692;50.710;7.180;2023-03-25T03:28:54;35.70;;;34.10;;
13250;SDS011;6692;50.710;7.180;2023-03-25T03:30:54;21.60;;;20.67;;
13250;SDS011;6692;50.710;7.180;2023-03-25T03:32:56;28.67;;;27.37;;
13250;SDS011;6692;50.710;7.180;2023-03-25T03:34:56;10.53;;;9.90;;
13250;SDS011;6692;50.710;7.180;2023-03-25T03:37:13;14.67;;;13.97;;
13250;SDS011;6692;50.710;7.180;2023-03-25T03:39:20;12.47;;;11.77;;
13250;SDS011;6692;50.710;7.180;2023-03-25T03:41:23;6.23;;;5.63;;
13250;SDS011;6692;50.710;7.180;2023-03-25T03:43:26;6.77;;;6.17;;
13250;SDS011;6692;50.710;7.180;2023-03-25T03:45:28;10.10;;;9.70;;
13250;SDS011;6692;50.710;7.180;2023-03-25T03:47:29;7.77;;;7.27;;
13250;SDS011;6692;50.710;7.180;2023-03-25T03:49:31;4.27;;;3.97;;
13250;SDS011;6692;50.710;7.180;2023-03-25T03:51:31;5.03;;;4.73;;
13250;SDS011;6692;50.710;7.180;2023-03-25T03:53:33;4.67;;;3.67;;
13250;SDS011;6692;50.710;7.180;2023-03-25T03:55:40;3.30;;;3.00;;
13250;SDS011;6692;50.710;7.180;2023-03-25T03:57:46;3.97;;;3.40;;
13250;SDS011;6692;50.710;7.180;2023-03-25T03:59:51;3.80;;;3.50;;
13250;SDS011;6692;50.710;7.180;2023-03-25T04:01:57;5.67;;;3.07;;
13250;SDS011;6692;50.710;7.180;2023-03-25T04:03:58;3.67;;;3.47;;
13250;SDS011;6692;50.710;7.180;2023-03-25T04:05:59;3.23;;;2.93;;
13250;SDS011;6692;50.710;7.180;2023-03-25T04:08:01;3.10;;;2.70;;
13250;SDS011;6692;50.710;7.180;2023-03-25T04:10:04;3.93;;;3.47;;
13250;SDS011;6692;50.710;7.180;2023-03-25T04:12:04;2.80;;;2.60;;
13250;SDS011;6692;50.710;7.180;2023-03-25T04:14:05;5.90;;;3.20;;
13250;SDS011;6692;50.710;7.180;2023-03-25T04:16:06;5.40;;;5.10;;
13250;SDS011;6692;50.710;7.180;2023-03-25T04:18:07;3.87;;;3.43;;
13250;SDS011;6692;50.710;7.180;2023-03-25T04:20:10;3.93;;;3.60;;
13250;SDS011;6692;50.710;7.180;2023-03-25T04:22:10;3.47;;;2.73;;
13250;SDS011;6692;50.710;7.180;2023-03-25T04:24:10;3.83;;;3.53;;
13250;SDS011;6692;50.710;7.180;2023-03-25T04:26:12;4.23;;;3.90;;
13250;SDS011;6692;50.710;7.180;2023-03-25T04:28:12;3.30;;;3.00;;
13250;SDS011;6692;50.710;7.180;2023-03-25T04:30:13;5.80;;;5.30;;
13250;SDS011;6692;50.710;7.180;2023-03-25T04:32:14;5.93;;;5.33;;
13250;SDS011;6692;50.710;7.180;2023-03-25T04:34:14;5.80;;;5.40;;
13250;SDS011;6692;50.710;7.180;2023-03-25T04:36:15;3.57;;;3.27;;
13250;SDS011;6692;50.710;7.180;2023-03-25T04:38:16;3.63;;;3.33;;
13250;SDS011;6692;50.710;7.180;2023-03-25T04:40:16;4.13;;;3.30;;
13250;SDS011;6692;50.710;7.180;2023-03-25T04:42:17;3.80;;;3.50;;
13250;SDS011;6692;50.710;7.180;2023-03-25T04:44:18;3.73;;;3.40;;
13250;SDS011;6692;50.710;7.180;2023-03-25T04:46:19;4.40;;;4.20;;
13250;SDS011;6692;50.710;7.180;2023-03-25T04:48:21;4.53;;;3.90;;
13250;SDS011;6692;50.710;7.180;2023-03-25T04:50:23;5.53;;;5.23;;
13250;SDS011;6692;50.710;7.180;2023-03-25T04:52:24;4.80;;;4.50;;
13250;SDS011;6692;50.710;7.180;2023-03-25T04:54:24;4.50;;;4.10;;
13250;SDS011;6692;50.710;7.180;2023-03-25T04:56:25;4.90;;;4.33;;
13250;SDS011;6692;50.710;7.180;2023-03-25T04:58:26;3.93;;;3.63;;
13250;SDS011;6692;50.710;7.180;2023-03-25T05:00:26;7.87;;;7.37;;
13250;SDS011;6692;50.710;7.180;2023-03-25T05:02:28;5.80;;;3.63;;
13250;SDS011;6692;50.710;7.180;2023-03-25T05:04:29;8.33;;;7.73;;
13250;SDS011;6692;50.710;7.180;2023-03-25T05:06:32;9.20;;;8.60;;
13250;SDS011;6692;50.710;7.180;2023-03-25T05:08:33;8.27;;;7.77;;
13250;SDS011;6692;50.710;7.180;2023-03-25T05:10:34;4.83;;;4.50;;
13250;SDS011;6692;50.710;7.180;2023-03-25T05:12:34;3.10;;;2.90;;
13250;SDS011;6692;50.710;7.180;2023-03-25T05:14:35;5.23;;;4.83;;
13250;SDS011;6692;50.710;7.180;2023-03-25T05:16:36;4.20;;;3.60;;
13250;SDS011;6692;50.710;7.180;2023-03-25T05:18:36;3.33;;;2.97;;
13250;SDS011;6692;50.710;7.180;2023-03-25T05:20:38;4.47;;;4.17;;
13250;SDS011;6692;50.710;7.180;2023-03-25T05:22:38;3.63;;;3.33;;
13250;SDS011;6692;50.710;7.180;2023-03-25T05:24:39;4.03;;;3.77;;
13250;SDS011;6692;50.710;7.180;2023-03-25T05:26:40;4.30;;;3.70;;
13250;SDS011;6692;50.710;7.180;2023-03-25T05:28:40;4.43;;;3.53;;
13250;SDS011;6692;50.710;7.180;2023-03-25T05:30:42;5.60;;;3.37;;
13250;SDS011;6692;50.710;7.180;2023-03-25T05:32:43;6.57;;;3.23;;
13250;SDS011;6692;50.710;7.180;2023-03-25T05:34:44;5.97;;;5.50;;
13250;SDS011;6692;50.710;7.180;2023-03-25T05:36:46;6.80;;;6.20;;
13250;SDS011;6692;50.710;7.180;2023-03-25T05:38:48;4.90;;;4.50;;
13250;SDS011;6692;50.710;7.180;2023-03-25T05:40:48;4.43;;;3.00;;
13250;SDS011;6692;50.710;7.180;2023-03-25T05:42:50;6.37;;;5.87;;
13250;SDS011;6692;50.710;7.180;2023-03-25T05:44:51;5.60;;;5.30;;
13250;SDS011;6692;50.710;7.180;2023-03-25T05:46:52;8.03;;;7.43;;
13250;SDS011;6692;50.710;7.180;2023-03-25T05:48:52;4.17;;;3.87;;
13250;SDS011;6692;50.710;7.180;2023-03-25T05:50:53;5.57;;;5.13;;
13250;SDS011;6692;50.710;7.180;2023-03-25T05:52:54;4.10;;;3.53;;
13250;SDS011;6692;50.710;7.180;2023-03-25T05:54:54;6.20;;;5.70;;
13250;SDS011;6692;50.710;7.180;2023-03-25T05:56:55;5.00;;;4.70;;
13250;SDS011;6692;50.710;7.180;2023-03-25T05:58:56;5.80;;;5.37;;
13250;SDS011;6692;50.710;7.180;2023-03-25T06:00:57;6.50;;;5.97;;
13250;SDS011;6692;50.710;7.180;2023-03-25T06:02:58;4.83;;;4.40;;
13250;SDS011;6692;50.710;7.180;2023-03-25T06:04:58;4.43;;;4.00;;
13250;SDS011;6692;50.710;7.180;2023-03-25T06:07:00;6.73;;;5.13;;
13250;SDS011;6692;50.710;7.180;2023-03-25T06:09:01;4.70;;;4.30;;
13250;SDS011;6692;50.710;7.180;2023-03-25T06:11:02;5.17;;;3.10;;
13250;SDS011;6692;50.710;7.180;2023-03-25T06:13:03;5.63;;;5.23;;
13250;SDS011;6692;50.710;7.180;2023-03-25T06:15:06;5.30;;;4.10;;
13250;SDS011;6692;50.710;7.180;2023-03-25T06:17:08;6.73;;;4.30;;
13250;SDS011;6692;50.710;7.180;2023-03-25T06:19:09;4.23;;;3.93;;
13250;SDS011;6692;50.710;7.180;2023-03-25T06:21:11;5.70;;;3.20;;
13250;SDS011;6692;50.710;7.180;2023-03-25T06:23:11;5.43;;;3.03;;
13250;SDS011;6692;50.710;7.180;2023-03-25T06:25:13;6.77;;;3.20;;
13250;SDS011;6692;50.710;7.180;2023-03-25T06:27:17;4.50;;;3.87;;
13250;SDS011;6692;50.710;7.180;2023-03-25T06:29:17;6.07;;;2.90;;
13250;SDS011;6692;50.710;7.180;2023-03-25T06:31:19;4.80;;;4.50;;
13250;SDS011;6692;50.710;7.180;2023-03-25T06:33:19;4.93;;;4.47;;
13250;SDS011;6692;50.710;7.180;2023-03-25T06:35:20;4.10;;;3.60;;
13250;SDS011;6692;50.710;7.180;2023-03-25T06:37:20;5.40;;;3.23;;
13250;SDS011;6692;50.710;7.180;2023-03-25T06:39:21;4.40;;;3.43;;
13250;SDS011;6692;50.710;7.180;2023-03-25T06:41:22;4.30;;;3.90;;
13250;SDS011;6692;50.710;7.180;2023-03-25T06:43:22;5.40;;;4.03;;
13250;SDS011;6692;50.710;7.180;2023-03-25T06:45:23;7.10;;;4.37;;
13250;SDS011;6692;50.710;7.180;2023-03-25T06:47:25;4.30;;;3.90;;
13250;SDS011;6692;50.710;7.180;2023-03-25T06:49:27;5.13;;;4.67;;
13250;SDS011;6692;50.710;7.180;2023-03-25T06:51:28;4.13;;;3.17;;
13250;SDS011;6692;50.710;7.180;2023-03-25T06:53:29;5.73;;;5.13;;
13250;SDS011;6692;50.710;7.180;2023-03-25T06:55:30;4.70;;;3.57;;
13250;SDS011;6692;50.710;7.180;2023-03-25T06:57:30;5.17;;;4.60;;
13250;SDS011;6692;50.710;7.180;2023-03-25T06:59:31;5.43;;;4.57;;
13250;SDS011;6692;50.710;7.180;2023-03-25T07:01:32;4.43;;;4.13;;
13250;SDS011;6692;50.710;7.180;2023-03-25T07:03:33;4.10;;;3.67;;
13250;SDS011;6692;50.710;7.180;2023-03-25T07:05:34;4.13;;;3.73;;
13250;SDS011;6692;50.710;7.180;2023-03-25T07:07:34;4.60;;;3.27;;
13250;SDS011;6692;50.710;7.180;2023-03-25T07:09:35;4.10;;;3.80;;
13250;SDS011;6692;50.710;7.180;2023-03-25T07:11:37;6.70;;;4.47;;
13250;SDS011;6692;50.710;7.180;2023-03-25T07:13:38;4.23;;;3.90;;
13250;SDS011;6692;50.710;7.180;2023-03-25T07:15:39;7.00;;;6.50;;
13250;SDS011;6692;50.710;7.180;2023-03-25T07:17:39;5.13;;;4.60;;
13250;SDS011;6692;50.710;7.180;2023-03-25T07:19:41;7.37;;;6.93;;
13250;SDS011;6692;50.710;7.180;2023-03-25T07:21:41;6.60;;;6.20;;
13250;SDS011;6692;50.710;7.180;2023-03-25T07:23:42;10.87;;;9.87;;
13250;SDS011;6692;50.710;7.180;2023-03-25T07:25:43;7.93;;;7.37;;
13250;SDS011;6692;50.710;7.180;2023-03-25T07:27:43;7.70;;;7.10;;
13250;SDS011;6692;50.710;7.180;2023-03-25T07:29:44;8.03;;;7.43;;
13250;SDS011;6692;50.710;7.180;2023-03-25T07:31:44;11.70;;;11.03;;
13250;SDS011;6692;50.710;7.180;2023-03-25T07:33:45;7.17;;;6.67;;
13250;SDS011;6692;50.710;7.180;2023-03-25T07:35:46;8.57;;;7.70;;
13250;SDS011;6692;50.710;7.180;2023-03-25T07:37:46;9.37;;;8.67;;
13250;SDS011;6692;50.710;7.180;2023-03-25T07:39:47;6.67;;;5.40;;
13250;SDS011;6692;50.710;7.180;2023-03-25T07:41:48;8.13;;;4.87;;
13250;SDS011;6692;50.710;7.180;2023-03-25T07:43:49;6.60;;;3.90;;
13250;SDS011;6692;50.710;7.180;2023-03-25T07:45:50;4.23;;;2.97;;
13250;SDS011;6692;50.710;7.180;2023-03-25T07:47:51;4.13;;;3.77;;
13250;SDS011;6692;50.710;7.180;2023-03-25T07:49:52;7.40;;;4.50;;
13250;SDS011;6692;50.710;7.180;2023-03-25T07:51:52;3.67;;;3.23;;
13250;SDS011;6692;50.710;7.180;2023-03-25T07:53:53;3.93;;;3.73;;
13250;SDS011;6692;50.710;7.180;2023-03-25T07:55:54;4.40;;;3.60;;
13250;SDS011;6692;50.710;7.180;2023-03-25T07:57:54;5.47;;;5.17;;
13250;SDS011;6692;50.710;7.180;2023-03-25T07:59:55;4.50;;;4.20;;
13250;SDS011;6692;50.710;7.180;2023-03-25T08:01:56;4.20;;;3.90;;
13250;SDS011;6692;50.710;7.180;2023-03-25T08:03:57;3.50;;;3.20;;
13250;SDS011;6692;50.710;7.180;2023-03-25T08:06:00;3.10;;;2.90;;
13250;SDS011;6692;50.710;7.180;2023-03-25T08:08:00;4.13;;;3.93;;
13250;SDS011;6692;50.710;7.180;2023-03-25T08:10:02;3.20;;;2.77;;
13250;SDS011;6692;50.710;7.180;2023-03-25T08:12:02;3.10;;;2.90;;
13250;SDS011;6692;50.710;7.180;2023-03-25T08:14:03;5.83;;;5.63;;
13250;SDS011;6692;50.710;7.180;2023-03-25T08:16:09;6.60;;;6.27;;
13250;SDS011;6692;50.710;7.180;2023-03-25T08:18:09;3.57;;;3.33;;
13250;SDS011;6692;50.710;7.180;2023-03-25T08:20:09;3.77;;;3.57;;
13250;SDS011;6692;50.710;7.180;2023-03-25T08:22:10;3.83;;;3.53;;
13250;SDS011;6692;50.710;7.180;2023-03-25T08:24:11;2.97;;;2.87;;
13250;SDS011;6692;50.710;7.180;2023-03-25T08:26:12;2.03;;;1.93;;
13250;SDS011;6692;50.710;7.180;2023-03-25T08:28:12;2.30;;;2.10;;
13250;SDS011;6692;50.710;7.180;2023-03-25T08:30:13;2.37;;;2.27;;
13250;SDS011;6692;50.710;7.180;2023-03-25T08:32:14;2.43;;;1.77;;
13250;SDS011;6692;50.710;7.180;2023-03-25T08:34:15;2.17;;;2.07;;
13250;SDS011;6692;50.710;7.180;2023-03-25T08:36:16;3.20;;;2.37;;
13250;SDS011;6692;50.710;7.180;2023-03-25T08:38:18;1.87;;;1.77;;
13250;SDS011;6692;50.710;7.180;2023-03-25T08:40:20;3.07;;;2.87;;
13250;SDS011;6692;50.710;7.180;2023-03-25T08:42:21;3.20;;;3.00;;
13250;SDS011;6692;50.710;7.180;2023-03-25T08:44:21;3.33;;;3.10;;
13250;SDS011;6692;50.710;7.180;2023-03-25T08:46:22;2.53;;;2.33;;
13250;SDS011;6692;50.710;7.180;2023-03-25T08:48:23;2.83;;;2.63;;
13250;SDS011;6692;50.710;7.180;2023-03-25T08:50:24;4.10;;;2.53;;
13250;SDS011;6692;50.710;7.180;2023-03-25T08:52:25;3.63;;;3.10;;
13250;SDS011;6692;50.710;7.180;2023-03-25T08:54:25;3.27;;;2.97;;
13250;SDS011;6692;50.710;7.180;2023-03-25T08:56:26;2.90;;;2.70;;
13250;SDS011;6692;50.710;7.180;2023-03-25T08:58:27;2.93;;;2.73;;
13250;SDS011;6692;50.710;7.180;2023-03-25T09:00:27;2.67;;;2.07;;
13250;SDS011;6692;50.710;7.180;2023-03-25T09:02:28;2.70;;;2.50;;
13250;SDS011;6692;50.710;7.180;2023-03-25T09:04:29;2.40;;;2.10;;
13250;SDS011;6692;50.710;7.180;2023-03-25T09:06:29;3.73;;;2.30;;
13250;SDS011;6692;50.710;7.180;2023-03-25T09:08:30;4.97;;;2.97;;
13250;SDS011;6692;50.710;7.180;2023-03-25T09:10:31;2.13;;;1.93;;
13250;SDS011;6692;50.710;7.180;2023-03-25T09:12:32;4.43;;;2.53;;
13250;SDS011;6692;50.710;7.180;2023-03-25T09:14:33;3.53;;;3.03;;
13250;SDS011;6692;50.710;7.180;2023-03-25T09:16:33;4.07;;;2.67;;
13250;SDS011;6692;50.710;7.180;2023-03-25T09:18:35;2.77;;;2.50;;
13250;SDS011;6692;50.710;7.180;2023-03-25T09:20:36;3.73;;;2.67;;
13250;SDS011;6692;50.710;7.180;2023-03-25T09:22:36;3.10;;;2.90;;
13250;SDS011;6692;50.710;7.180;2023-03-25T09:24:37;4.63;;;2.80;;
13250;SDS011;6692;50.710;7.180;2023-03-25T09:26:38;3.47;;;2.40;;
13250;SDS011;6692;50.710;7.180;2023-03-25T09:28:38;3.40;;;2.70;;
13250;SDS011;6692;50.710;7.180;2023-03-25T09:30:40;3.50;;;2.63;;
13250;SDS011;6692;50.710;7.180;2023-03-25T09:32:41;3.47;;;2.63;;
13250;SDS011;6692;50.710;7.180;2023-03-25T09:34:42;3.83;;;3.10;;
13250;SDS011;6692;50.710;7.180;2023-03-25T09:36:43;4.77;;;2.43;;
13250;SDS011;6692;50.710;7.180;2023-03-25T09:38:44;4.60;;;3.10;;
13250;SDS011;6692;50.710;7.180;2023-03-25T09:40:45;4.00;;;2.30;;
13250;SDS011;6692;50.710;7.180;2023-03-25T09:42:52;6.50;;;3.20;;
13250;SDS011;6692;50.710;7.180;2023-03-25T09:44:56;5.00;;;2.30;;
13250;SDS011;6692;50.710;7.180;2023-03-25T09:46:55;4.40;;;2.47;;
13250;SDS011;6692;50.710;7.180;2023-03-25T09:48:57;3.30;;;2.37;;
13250;SDS011;6692;50.710;7.180;2023-03-25T09:50:59;4.73;;;2.63;;
13250;SDS011;6692;50.710;7.180;2023-03-25T09:53:04;5.73;;;2.33;;
13250;SDS011;6692;50.710;7.180;2023-03-25T09:55:06;5.73;;;2.30;;
13250;SDS011;6692;50.710;7.180;2023-03-25T09:57:06;4.47;;;2.37;;
13250;SDS011;6692;50.710;7.180;2023-03-25T09:59:08;6.57;;;2.87;;
13250;SDS011;6692;50.710;7.180;2023-03-25T10:03:23;5.83;;;2.90;;
13250;SDS011;6692;50.710;7.180;2023-03-25T10:05:45;5.03;;;2.77;;
13250;SDS011;6692;50.710;7.180;2023-03-25T10:07:55;4.13;;;2.67;;
13250;SDS011;6692;50.710;7.180;2023-03-25T10:16:59;7.17;;;2.60;;
13250;SDS011;6692;50.710;7.180;2023-03-25T10:19:09;5.87;;;3.10;;
13250;SDS011;6692;50.710;7.180;2023-03-25T10:21:48;4.93;;;2.60;;
13250;SDS011;6692;50.710;7.180;2023-03-25T10:25:59;8.07;;;3.40;;
13250;SDS011;6692;50.710;7.180;2023-03-25T10:27:58;6.50;;;3.00;;
13250;SDS011;6692;50.710;7.180;2023-03-25T10:30:01;4.97;;;2.80;;
13250;SDS011;6692;50.710;7.180;2023-03-25T10:32:29;5.23;;;2.27;;
13250;SDS011;6692;50.710;7.180;2023-03-25T10:34:36;9.03;;;3.53;;
13250;SDS011;6692;50.710;7.180;2023-03-25T10:36:39;4.10;;;2.80;;
13250;SDS011;6692;50.710;7.180;2023-03-25T10:38:38;5.13;;;2.73;;
13250;SDS011;6692;50.710;7.180;2023-03-25T10:40:41;9.77;;;3.80;;
13250;SDS011;6692;50.710;7.180;2023-03-25T10:42:44;7.23;;;3.90;;
13250;SDS011;6692;50.710;7.180;2023-03-25T10:44:44;6.17;;;3.87;;
13250;SDS011;6692;50.710;7.180;2023-03-25T10:46:46;3.93;;;3.50;;
13250;SDS011;6692;50.710;7.180;2023-03-25T10:48:46;7.70;;;3.80;;
13250;SDS011;6692;50.710;7.180;2023-03-25T10:50:47;8.23;;;3.80;;
13250;SDS011;6692;50.710;7.180;2023-03-25T10:52:48;5.40;;;3.20;;
13250;SDS011;6692;50.710;7.180;2023-03-25T10:54:50;5.27;;;3.30;;
13250;SDS011;6692;50.710;7.180;2023-03-25T10:56:49;7.73;;;3.20;;
13250;SDS011;6692;50.710;7.180;2023-03-25T10:58:53;2.70;;;2.47;;
13250;SDS011;6692;50.710;7.180;2023-03-25T11:00:52;6.47;;;3.23;;
13250;SDS011;6692;50.710;7.180;2023-03-25T11:02:53;6.13;;;3.50;;
13250;SDS011;6692;50.710;7.180;2023-03-25T11:04:56;10.40;;;3.90;;
13250;SDS011;6692;50.710;7.180;2023-03-25T11:06:56;4.33;;;2.80;;
13250;SDS011;6692;50.710;7.180;2023-03-25T11:08:57;5.17;;;2.70;;
13250;SDS011;6692;50.710;7.180;2023-03-25T11:11:12;5.50;;;2.90;;
13250;SDS011;6692;50.710;7.180;2023-03-25T11:13:12;4.43;;;2.60;;
13250;SDS011;6692;50.710;7.180;2023-03-25T11:15:14;3.43;;;2.67;;
13250;SDS011;6692;50.710;7.180;2023-03-25T11:17:14;5.27;;;2.90;;
13250;SDS011;6692;50.710;7.180;2023-03-25T11:19:17;6.57;;;2.40;;
13250;SDS011;6692;50.710;7.180;2023-03-25T11:21:15;4.57;;;2.53;;
13250;SDS011;6692;50.710;7.180;2023-03-25T11:23:23;4.93;;;2.67;;
13250;SDS011;6692;50.710;7.180;2023-03-25T11:25:35;5.83;;;2.50;;
13250;SDS011;6692;50.710;7.180;2023-03-25T11:27:40;5.10;;;2.30;;
13250;SDS011;6692;50.710;7.180;2023-03-25T11:29:37;5.40;;;2.93;;
13250;SDS011;6692;50.710;7.180;2023-03-25T11:31:38;3.80;;;2.00;;
13250;SDS011;6692;50.710;7.180;2023-03-25T11:33:39;7.57;;;2.50;;
13250;SDS011;6692;50.710;7.180;2023-03-25T11:35:40;3.90;;;2.03;;
13250;SDS011;6692;50.710;7.180;2023-03-25T11:37:46;5.83;;;2.23;;
13250;SDS011;6692;50.710;7.180;2023-03-25T11:39:49;3.40;;;2.07;;
13250;SDS011;6692;50.710;7.180;2023-03-25T11:41:49;3.97;;;2.57;;
13250;SDS011;6692;50.710;7.180;2023-03-25T11:43:49;5.27;;;2.60;;
13250;SDS011;6692;50.710;7.180;2023-03-25T11:45:50;3.50;;;2.43;;
13250;SDS011;6692;50.710;7.180;2023-03-25T11:47:51;5.13;;;2.87;;
13250;SDS011;6692;50.710;7.180;2023-03-25T11:49:52;6.63;;;2.57;;
13250;SDS011;6692;50.710;7.180;2023-03-25T11:51:56;6.20;;;2.70;;
13250;SDS011;6692;50.710;7.180;2023-03-25T11:53:57;3.47;;;2.40;;
13250;SDS011;6692;50.710;7.180;2023-03-25T11:55:58;4.27;;;2.40;;
13250;SDS011;6692;50.710;7.180;2023-03-25T11:57:59;3.53;;;2.40;;
13250;SDS011;6692;50.710;7.180;2023-03-25T12:00:01;4.10;;;2.50;;
13250;SDS011;6692;50.710;7.180;2023-03-25T12:02:01;3.23;;;2.40;;
13250;SDS011;6692;50.710;7.180;2023-03-25T12:04:05;4.93;;;2.80;;
13250;SDS011;6692;50.710;7.180;2023-03-25T12:06:12;5.17;;;2.60;;
13250;SDS011;6692;50.710;7.180;2023-03-25T12:08:12;4.77;;;2.57;;
13250;SDS011;6692;50.710;7.180;2023-03-25T12:10:19;3.47;;;2.60;;
13250;SDS011;6692;50.710;7.180;2023-03-25T12:12:37;7.00;;;2.10;;
13250;SDS011;6692;50.710;7.180;2023-03-25T12:14:45;4.10;;;2.13;;
13250;SDS011;6692;50.710;7.180;2023-03-25T12:16:45;5.43;;;2.23;;
13250;SDS011;6692;50.710;7.180;2023-03-25T12:18:47;4.03;;;2.20;;
13250;SDS011;6692;50.710;7.180;2023-03-25T12:20:53;2.33;;;2.13;;
13250;SDS011;6692;50.710;7.180;2023-03-25T12:25:34;3.47;;;2.20;;
13250;SDS011;6692;50.710;7.180;2023-03-25T12:28:57;4.77;;;2.83;;
13250;SDS011;6692;50.710;7.180;2023-03-25T12:30:14;5.27;;;3.47;;
13250;SDS011;6692;50.710;7.180;2023-03-25T12:34:24;3.60;;;3.20;;
13250;SDS011;6692;50.710;7.180;2023-03-25T12:36:41;3.90;;;2.67;;
13250;SDS011;6692;50.710;7.180;2023-03-25T12:38:47;5.33;;;2.60;;
13250;SDS011;6692;50.710;7.180;2023-03-25T12:41:27;3.90;;;2.60;;
13250;SDS011;6692;50.710;7.180;2023-03-25T12:43:29;3.60;;;2.30;;
13250;SDS011;6692;50.710;7.180;2023-03-25T12:48:08;6.50;;;2.50;;
13250;SDS011;6692;50.710;7.180;2023-03-25T12:52:52;4.57;;;2.20;;
13250;SDS011;6692;50.710;7.180;2023-03-25T12:59:24;4.03;;;2.43;;